SVA559 OMDB-OERK
Flight info
| Callsign | SVA559 |
|---|---|
| Flight time | 1h 26m |
| Altitude | 40000 |
| Route | SENPA N571 ALPOB L768 ULADA T136 OTISU N112 GETOT Q212 ASNUM |
| Aircraft | B77W/H-SDE2E3FGHIRWXY/L |
Departure
| Time | 2026-04-23 11:54 |
|---|---|
| Airport | Dubai International Airport (OMDB) |
Arrival
| Time | 2026-04-23 13:20 |
|---|---|
| Airport | King Khalid International Airport (OERK) |
| Time | Latitude | Longitude | Altitude | Speed | Heading |
|---|---|---|---|---|---|
| 2026-04-23 11:15 | 25.25095 | 55.35928 | 27 ft | 0 kts | 211° |
| 2026-04-23 11:38 | 25.25097 | 55.35929 | 30 ft | 3 kts | 211° |
| 2026-04-23 11:38 | 25.25120 | 55.35944 | 27 ft | 4 kts | 211° |
| 2026-04-23 11:38 | 25.25140 | 55.35958 | 26 ft | 4 kts | 217° |
| 2026-04-23 11:38 | 25.25158 | 55.35978 | 25 ft | 4 kts | 245° |
| 2026-04-23 11:39 | 25.25162 | 55.36005 | 24 ft | 4 kts | 288° |
| 2026-04-23 11:39 | 25.25150 | 55.36031 | 24 ft | 4 kts | 309° |
| 2026-04-23 11:39 | 25.25134 | 55.36052 | 25 ft | 2 kts | 302° |
| 2026-04-23 11:39 | 25.25133 | 55.36053 | 25 ft | 0 kts | 302° |
| 2026-04-23 11:42 | 25.25134 | 55.36052 | 25 ft | 1 kts | 302° |
| 2026-04-23 11:42 | 25.25146 | 55.36031 | 24 ft | 6 kts | 302° |
| 2026-04-23 11:43 | 25.25172 | 55.35984 | 25 ft | 9 kts | 301° |
| 2026-04-23 11:43 | 25.25209 | 55.35918 | 27 ft | 12 kts | 302° |
| 2026-04-23 11:43 | 25.25261 | 55.35826 | 27 ft | 14 kts | 302° |
| 2026-04-23 11:43 | 25.25320 | 55.35722 | 27 ft | 18 kts | 302° |
| 2026-04-23 11:44 | 25.25384 | 55.35608 | 27 ft | 16 kts | 302° |
| 2026-04-23 11:44 | 25.25443 | 55.35502 | 27 ft | 15 kts | 302° |
| 2026-04-23 11:44 | 25.25498 | 55.35405 | 27 ft | 15 kts | 302° |
| 2026-04-23 11:44 | 25.25547 | 55.35317 | 27 ft | 14 kts | 301° |
| 2026-04-23 11:45 | 25.25593 | 55.35235 | 27 ft | 14 kts | 302° |
| 2026-04-23 11:45 | 25.25666 | 55.35159 | 27 ft | 15 kts | 358° |
| 2026-04-23 11:45 | 25.25749 | 55.35201 | 27 ft | 15 kts | 31° |
| 2026-04-23 11:45 | 25.25847 | 55.35266 | 27 ft | 18 kts | 31° |
| 2026-04-23 11:46 | 25.25919 | 55.35314 | 27 ft | 11 kts | 31° |
| 2026-04-23 11:46 | 25.25982 | 55.35379 | 27 ft | 13 kts | 58° |
| 2026-04-23 11:46 | 25.26004 | 55.35487 | 27 ft | 15 kts | 92° |
| 2026-04-23 11:46 | 25.25967 | 55.35595 | 27 ft | 17 kts | 120° |
| 2026-04-23 11:47 | 25.25900 | 55.35715 | 27 ft | 17 kts | 122° |
| 2026-04-23 11:47 | 25.25841 | 55.35820 | 27 ft | 16 kts | 122° |
| 2026-04-23 11:47 | 25.25774 | 55.35941 | 27 ft | 19 kts | 118° |
| 2026-04-23 11:47 | 25.25718 | 55.36039 | 27 ft | 16 kts | 123° |
| 2026-04-23 11:48 | 25.25651 | 55.36154 | 27 ft | 20 kts | 124° |
| 2026-04-23 11:48 | 25.25591 | 55.36257 | 27 ft | 14 kts | 116° |
| 2026-04-23 11:48 | 25.25535 | 55.36363 | 27 ft | 17 kts | 122° |
| 2026-04-23 11:48 | 25.25476 | 55.36467 | 27 ft | 16 kts | 122° |
| 2026-04-23 11:49 | 25.25412 | 55.36582 | 27 ft | 20 kts | 121° |
| 2026-04-23 11:49 | 25.25340 | 55.36710 | 27 ft | 17 kts | 122° |
| 2026-04-23 11:49 | 25.25274 | 55.36828 | 28 ft | 20 kts | 122° |
| 2026-04-23 11:49 | 25.25202 | 55.36955 | 27 ft | 19 kts | 122° |
| 2026-04-23 11:50 | 25.25127 | 55.37089 | 27 ft | 22 kts | 121° |
| 2026-04-23 11:50 | 25.25047 | 55.37233 | 27 ft | 23 kts | 122° |
| 2026-04-23 11:50 | 25.24966 | 55.37375 | 27 ft | 22 kts | 122° |
| 2026-04-23 11:50 | 25.24893 | 55.37504 | 27 ft | 20 kts | 122° |
| 2026-04-23 11:51 | 25.24819 | 55.37637 | 27 ft | 21 kts | 122° |
| 2026-04-23 11:51 | 25.24767 | 55.37728 | 27 ft | 20 kts | 122° |
| 2026-04-23 11:51 | 25.24680 | 55.37883 | 27 ft | 16 kts | 122° |
| 2026-04-23 11:51 | 25.24669 | 55.37922 | 27 ft | 2 kts | 93° |
| 2026-04-23 11:52 | 25.24672 | 55.37939 | 27 ft | 5 kts | 73° |
| 2026-04-23 11:52 | 25.24720 | 55.37989 | 27 ft | 10 kts | 33° |
| 2026-04-23 11:52 | 25.24794 | 55.38007 | 27 ft | 13 kts | 340° |
| 2026-04-23 11:52 | 25.24837 | 55.37964 | 27 ft | 9 kts | 307° |
| 2026-04-23 11:53 | 25.24867 | 55.37915 | 29 ft | 6 kts | 301° |
| 2026-04-23 11:53 | 25.24949 | 55.37767 | 27 ft | 54 kts | 302° |
| 2026-04-23 11:53 | 25.25153 | 55.37402 | 27 ft | 114 kts | 301° |
| 2026-04-23 11:53 | 25.25711 | 55.36410 | 42 ft | 185 kts | 302° |
| 2026-04-23 11:54 | 25.26399 | 55.35106 | 534 ft | 204 kts | 298° |
| 2026-04-23 11:54 | 25.27081 | 55.33697 | 1141 ft | 215 kts | 303° |
| 2026-04-23 11:54 | 25.28184 | 55.31798 | 2100 ft | 236 kts | 305° |
| 2026-04-23 11:54 | 25.29111 | 55.30190 | 2591 ft | 255 kts | 302° |
| 2026-04-23 11:55 | 25.29625 | 55.28991 | 3070 ft | 259 kts | 284° |
| 2026-04-23 11:55 | 25.29802 | 55.27041 | 3751 ft | 262 kts | 270° |
| 2026-04-23 11:55 | 25.29909 | 55.25003 | 4542 ft | 266 kts | 272° |
| 2026-04-23 11:55 | 25.30059 | 55.22956 | 5429 ft | 269 kts | 272° |
| 2026-04-23 11:56 | 25.30220 | 55.20890 | 6300 ft | 271 kts | 271° |
| 2026-04-23 11:56 | 25.30382 | 55.18805 | 7120 ft | 273 kts | 271° |
| 2026-04-23 11:56 | 25.30401 | 55.16707 | 7947 ft | 274 kts | 263° |
| 2026-04-23 11:56 | 25.30227 | 55.14603 | 8752 ft | 276 kts | 261° |
| 2026-04-23 11:57 | 25.30024 | 55.12484 | 9623 ft | 278 kts | 261° |
| 2026-04-23 11:57 | 25.29829 | 55.10376 | 10366 ft | 283 kts | 261° |
| 2026-04-23 11:57 | 25.29632 | 55.08136 | 10739 ft | 306 kts | 261° |
| 2026-04-23 11:57 | 25.29424 | 55.05687 | 10945 ft | 334 kts | 262° |
| 2026-04-23 11:58 | 25.29215 | 55.03030 | 11193 ft | 358 kts | 262° |
| 2026-04-23 11:58 | 25.29004 | 55.00241 | 11883 ft | 369 kts | 262° |
| 2026-04-23 11:58 | 25.28786 | 54.97394 | 12788 ft | 374 kts | 262° |
| 2026-04-23 11:58 | 25.28568 | 54.94521 | 13740 ft | 377 kts | 263° |
| 2026-04-23 11:59 | 25.28454 | 54.91605 | 14592 ft | 381 kts | 266° |
| 2026-04-23 11:59 | 25.28390 | 54.88669 | 15542 ft | 383 kts | 266° |
| 2026-04-23 11:59 | 25.28318 | 54.85727 | 16504 ft | 384 kts | 266° |
| 2026-04-23 11:59 | 25.28240 | 54.82802 | 17428 ft | 387 kts | 267° |
| 2026-04-23 12:00 | 25.28154 | 54.79815 | 18298 ft | 391 kts | 267° |
| 2026-04-23 12:00 | 25.28063 | 54.76797 | 19010 ft | 396 kts | 267° |
| 2026-04-23 12:00 | 25.28128 | 54.73772 | 19476 ft | 397 kts | 277° |
| 2026-04-23 12:00 | 25.28882 | 54.70793 | 19844 ft | 408 kts | 285° |
| 2026-04-23 12:01 | 25.29712 | 54.67770 | 20512 ft | 413 kts | 283° |
| 2026-04-23 12:01 | 25.30500 | 54.64710 | 21309 ft | 415 kts | 283° |
| 2026-04-23 12:01 | 25.31276 | 54.61625 | 22047 ft | 419 kts | 282° |
| 2026-04-23 12:01 | 25.32048 | 54.58544 | 22683 ft | 424 kts | 282° |
| 2026-04-23 12:02 | 25.32838 | 54.55380 | 23315 ft | 430 kts | 282° |
| 2026-04-23 12:02 | 25.33646 | 54.52182 | 23877 ft | 434 kts | 283° |
| 2026-04-23 12:02 | 25.34500 | 54.48978 | 24502 ft | 435 kts | 284° |
| 2026-04-23 12:02 | 25.35376 | 54.45775 | 25204 ft | 435 kts | 284° |
| 2026-04-23 12:03 | 25.36255 | 54.42572 | 25832 ft | 437 kts | 284° |
| 2026-04-23 12:03 | 25.37138 | 54.39347 | 26376 ft | 440 kts | 284° |
| 2026-04-23 12:03 | 25.38024 | 54.36096 | 26907 ft | 443 kts | 284° |
| 2026-04-23 12:03 | 25.38902 | 54.32864 | 27438 ft | 446 kts | 284° |
| 2026-04-23 12:04 | 25.39790 | 54.29571 | 27968 ft | 448 kts | 284° |
| 2026-04-23 12:04 | 25.40675 | 54.26255 | 28465 ft | 451 kts | 284° |
| 2026-04-23 12:04 | 25.41509 | 54.22905 | 28994 ft | 452 kts | 283° |
| 2026-04-23 12:04 | 25.42320 | 54.19544 | 29490 ft | 453 kts | 283° |
| 2026-04-23 12:05 | 25.43141 | 54.16164 | 29770 ft | 459 kts | 284° |
| 2026-04-23 12:05 | 25.44815 | 54.09362 | 29807 ft | 459 kts | 284° |
| 2026-04-23 12:06 | 25.46464 | 54.02581 | 29827 ft | 455 kts | 283° |
| 2026-04-23 12:06 | 25.48930 | 53.92410 | 29820 ft | 457 kts | 284° |
| 2026-04-23 12:07 | 25.50584 | 53.85617 | 29818 ft | 458 kts | 284° |
| 2026-04-23 12:07 | 25.52228 | 53.78858 | 29823 ft | 458 kts | 284° |
| 2026-04-23 12:08 | 25.53863 | 53.72047 | 29831 ft | 458 kts | 283° |
| 2026-04-23 12:08 | 25.55467 | 53.65228 | 29828 ft | 458 kts | 283° |
| 2026-04-23 12:09 | 25.57076 | 53.58400 | 29828 ft | 458 kts | 283° |
| 2026-04-23 12:09 | 25.58682 | 53.51614 | 29843 ft | 459 kts | 283° |
| 2026-04-23 12:10 | 25.59491 | 53.48200 | 30055 ft | 457 kts | 283° |
| 2026-04-23 12:10 | 25.60296 | 53.44795 | 30348 ft | 457 kts | 283° |
| 2026-04-23 12:10 | 25.61097 | 53.41382 | 30625 ft | 458 kts | 283° |
| 2026-04-23 12:10 | 25.61898 | 53.37970 | 30901 ft | 457 kts | 283° |
| 2026-04-23 12:11 | 25.62697 | 53.34567 | 31195 ft | 457 kts | 283° |
| 2026-04-23 12:11 | 25.63500 | 53.31158 | 31480 ft | 456 kts | 283° |
| 2026-04-23 12:11 | 25.64300 | 53.27763 | 31767 ft | 456 kts | 283° |
| 2026-04-23 12:11 | 25.65091 | 53.24414 | 32054 ft | 455 kts | 283° |
| 2026-04-23 12:12 | 25.65892 | 53.21025 | 32346 ft | 454 kts | 283° |
| 2026-04-23 12:12 | 25.66690 | 53.17646 | 32667 ft | 453 kts | 283° |
| 2026-04-23 12:12 | 25.67487 | 53.14274 | 32964 ft | 452 kts | 283° |
| 2026-04-23 12:12 | 25.68283 | 53.10906 | 33268 ft | 451 kts | 283° |
| 2026-04-23 12:13 | 25.69071 | 53.07546 | 33578 ft | 450 kts | 283° |
| 2026-04-23 12:13 | 25.69882 | 53.04195 | 33877 ft | 450 kts | 285° |
| 2026-04-23 12:13 | 25.70915 | 53.00924 | 34143 ft | 449 kts | 289° |
| 2026-04-23 12:13 | 25.72167 | 52.97806 | 34410 ft | 449 kts | 295° |
| 2026-04-23 12:14 | 25.73625 | 52.94747 | 34705 ft | 447 kts | 295° |
| 2026-04-23 12:14 | 25.75079 | 52.91707 | 34997 ft | 445 kts | 295° |
| 2026-04-23 12:14 | 25.76523 | 52.88679 | 35272 ft | 443 kts | 295° |
| 2026-04-23 12:14 | 25.77958 | 52.85659 | 35558 ft | 441 kts | 295° |
| 2026-04-23 12:15 | 25.79379 | 52.82658 | 35836 ft | 438 kts | 295° |
| 2026-04-23 12:15 | 25.80791 | 52.79671 | 36133 ft | 436 kts | 295° |
| 2026-04-23 12:15 | 25.82193 | 52.76702 | 36422 ft | 433 kts | 295° |
| 2026-04-23 12:15 | 25.83568 | 52.73789 | 36712 ft | 431 kts | 295° |
| 2026-04-23 12:16 | 25.86342 | 52.67912 | 36837 ft | 428 kts | 295° |
| 2026-04-23 12:16 | 25.89090 | 52.62077 | 36861 ft | 426 kts | 294° |
| 2026-04-23 12:17 | 25.91768 | 52.56224 | 36871 ft | 425 kts | 293° |
| 2026-04-23 12:17 | 25.94336 | 52.50365 | 36869 ft | 425 kts | 293° |
| 2026-04-23 12:18 | 25.96948 | 52.44464 | 36879 ft | 426 kts | 293° |
| 2026-04-23 12:18 | 25.99572 | 52.38545 | 36881 ft | 428 kts | 293° |
| 2026-04-23 12:19 | 26.02203 | 52.32605 | 36881 ft | 429 kts | 293° |
| 2026-04-23 12:19 | 26.04831 | 52.26688 | 36879 ft | 430 kts | 293° |
| 2026-04-23 12:20 | 26.07480 | 52.20730 | 36882 ft | 429 kts | 293° |
| 2026-04-23 12:20 | 26.10124 | 52.14778 | 36879 ft | 429 kts | 293° |
| 2026-04-23 12:21 | 26.12770 | 52.08814 | 36888 ft | 430 kts | 293° |
| 2026-04-23 12:21 | 26.15424 | 52.02833 | 36878 ft | 431 kts | 293° |
| 2026-04-23 12:22 | 26.18067 | 51.96882 | 36884 ft | 432 kts | 293° |
| 2026-04-23 12:22 | 26.20765 | 51.90913 | 36887 ft | 431 kts | 293° |
| 2026-04-23 12:23 | 26.23410 | 51.84918 | 36886 ft | 431 kts | 292° |
| 2026-04-23 12:23 | 26.26061 | 51.78918 | 36886 ft | 432 kts | 292° |
| 2026-04-23 12:24 | 26.28721 | 51.72964 | 36885 ft | 432 kts | 293° |
| 2026-04-23 12:24 | 26.31397 | 51.66968 | 36884 ft | 432 kts | 292° |
| 2026-04-23 12:25 | 26.34069 | 51.60964 | 36886 ft | 432 kts | 292° |
| 2026-04-23 12:25 | 26.36735 | 51.54961 | 36884 ft | 432 kts | 292° |
| 2026-04-23 12:26 | 26.39023 | 51.48861 | 36887 ft | 428 kts | 286° |
| 2026-04-23 12:26 | 26.40971 | 51.42601 | 36884 ft | 427 kts | 286° |
| 2026-04-23 12:27 | 26.42952 | 51.36366 | 36883 ft | 426 kts | 287° |
| 2026-04-23 12:27 | 26.44984 | 51.30159 | 36885 ft | 426 kts | 287° |
| 2026-04-23 12:28 | 26.46987 | 51.23995 | 36888 ft | 425 kts | 286° |
| 2026-04-23 12:28 | 26.48950 | 51.17781 | 36887 ft | 424 kts | 286° |
| 2026-04-23 12:29 | 26.50915 | 51.11569 | 36896 ft | 424 kts | 286° |
| 2026-04-23 12:29 | 26.52887 | 51.05360 | 36895 ft | 424 kts | 286° |
| 2026-04-23 12:30 | 26.54847 | 50.99199 | 36891 ft | 424 kts | 286° |
| 2026-04-23 12:30 | 26.56811 | 50.92999 | 36933 ft | 423 kts | 286° |
| 2026-04-23 12:31 | 26.57777 | 50.89924 | 37336 ft | 416 kts | 285° |
| 2026-04-23 12:31 | 26.58714 | 50.86875 | 37756 ft | 413 kts | 285° |
| 2026-04-23 12:31 | 26.59636 | 50.83847 | 38195 ft | 411 kts | 285° |
| 2026-04-23 12:31 | 26.60555 | 50.80833 | 38614 ft | 408 kts | 285° |
| 2026-04-23 12:32 | 26.61470 | 50.77847 | 38972 ft | 405 kts | 285° |
| 2026-04-23 12:32 | 26.62370 | 50.74922 | 39316 ft | 401 kts | 285° |
| 2026-04-23 12:32 | 26.63269 | 50.71987 | 39680 ft | 397 kts | 285° |
| 2026-04-23 12:32 | 26.64159 | 50.69071 | 39933 ft | 397 kts | 285° |
| 2026-04-23 12:33 | 26.65918 | 50.63176 | 39914 ft | 403 kts | 284° |
| 2026-04-23 12:33 | 26.67692 | 50.57204 | 39928 ft | 407 kts | 285° |
| 2026-04-23 12:34 | 26.69476 | 50.51218 | 39931 ft | 410 kts | 285° |
| 2026-04-23 12:34 | 26.71221 | 50.45127 | 39926 ft | 412 kts | 283° |
| 2026-04-23 12:35 | 26.72773 | 50.38957 | 39946 ft | 412 kts | 282° |
| 2026-04-23 12:35 | 26.74340 | 50.32799 | 39921 ft | 410 kts | 279° |
| 2026-04-23 12:36 | 26.74613 | 50.29657 | 39923 ft | 406 kts | 266° |
| 2026-04-23 12:36 | 26.74291 | 50.26571 | 39923 ft | 405 kts | 260° |
| 2026-04-23 12:36 | 26.72442 | 50.20643 | 39914 ft | 407 kts | 243° |
| 2026-04-23 12:37 | 26.69494 | 50.15237 | 39921 ft | 406 kts | 243° |
| 2026-04-23 12:37 | 26.66572 | 50.09826 | 39924 ft | 407 kts | 243° |
| 2026-04-23 12:38 | 26.63716 | 50.04416 | 39930 ft | 407 kts | 244° |
| 2026-04-23 12:38 | 26.60842 | 49.98947 | 39937 ft | 409 kts | 243° |
| 2026-04-23 12:39 | 26.57948 | 49.93468 | 39957 ft | 410 kts | 244° |
| 2026-04-23 12:39 | 26.55067 | 49.87971 | 39968 ft | 410 kts | 244° |
| 2026-04-23 12:40 | 26.52177 | 49.82462 | 39962 ft | 412 kts | 244° |
| 2026-04-23 12:40 | 26.49579 | 49.76860 | 39966 ft | 407 kts | 250° |
| 2026-04-23 12:41 | 26.47711 | 49.70930 | 39971 ft | 404 kts | 254° |
| 2026-04-23 12:41 | 26.45956 | 49.64975 | 39923 ft | 404 kts | 254° |
| 2026-04-23 12:42 | 26.44200 | 49.59021 | 39934 ft | 404 kts | 254° |
| 2026-04-23 12:42 | 26.42456 | 49.53107 | 39933 ft | 404 kts | 254° |
| 2026-04-23 12:43 | 26.40701 | 49.47160 | 39926 ft | 404 kts | 253° |
| 2026-04-23 12:43 | 26.38949 | 49.41231 | 39948 ft | 401 kts | 253° |
| 2026-04-23 12:44 | 26.37203 | 49.35334 | 39933 ft | 399 kts | 253° |
| 2026-04-23 12:44 | 26.35476 | 49.29502 | 39953 ft | 398 kts | 253° |
| 2026-04-23 12:45 | 26.33740 | 49.23638 | 39958 ft | 398 kts | 253° |
| 2026-04-23 12:45 | 26.31996 | 49.17753 | 39948 ft | 400 kts | 253° |
| 2026-04-23 12:46 | 26.30325 | 49.11858 | 39954 ft | 397 kts | 257° |
| 2026-04-23 12:46 | 26.29350 | 49.05872 | 39953 ft | 395 kts | 264° |
| 2026-04-23 12:47 | 26.28885 | 48.99791 | 39965 ft | 394 kts | 264° |
| 2026-04-23 12:47 | 26.28422 | 48.93714 | 39958 ft | 394 kts | 264° |
| 2026-04-23 12:48 | 26.27960 | 48.87642 | 39956 ft | 393 kts | 264° |
| 2026-04-23 12:48 | 26.27497 | 48.81567 | 39967 ft | 393 kts | 264° |
| 2026-04-23 12:49 | 26.27034 | 48.75531 | 39962 ft | 394 kts | 264° |
| 2026-04-23 12:49 | 26.26568 | 48.69454 | 39976 ft | 394 kts | 264° |
| 2026-04-23 12:50 | 26.26102 | 48.63368 | 39966 ft | 394 kts | 264° |
| 2026-04-23 12:50 | 26.25624 | 48.57281 | 39982 ft | 395 kts | 264° |
| 2026-04-23 12:51 | 26.24721 | 48.51593 | 39980 ft | 396 kts | 256° |
| 2026-04-23 12:51 | 26.23115 | 48.45717 | 39986 ft | 398 kts | 251° |
| 2026-04-23 12:52 | 26.20825 | 48.40093 | 39972 ft | 399 kts | 248° |
| 2026-04-23 12:52 | 26.18476 | 48.34496 | 39983 ft | 399 kts | 248° |
| 2026-04-23 12:53 | 26.16137 | 48.28933 | 39986 ft | 400 kts | 248° |
| 2026-04-23 12:53 | 26.13752 | 48.23338 | 39986 ft | 401 kts | 245° |
| 2026-04-23 12:54 | 26.10557 | 48.18199 | 39991 ft | 407 kts | 236° |
| 2026-04-23 12:54 | 26.06690 | 48.13550 | 39999 ft | 412 kts | 229° |
| 2026-04-23 12:55 | 26.02470 | 48.09265 | 39993 ft | 415 kts | 227° |
| 2026-04-23 12:55 | 25.97758 | 48.05452 | 39919 ft | 425 kts | 220° |
| 2026-04-23 12:56 | 25.95251 | 48.03669 | 39464 ft | 428 kts | 220° |
| 2026-04-23 12:56 | 25.92755 | 48.01888 | 39009 ft | 424 kts | 220° |
| 2026-04-23 12:56 | 25.90292 | 48.00128 | 38544 ft | 419 kts | 220° |
| 2026-04-23 12:56 | 25.87859 | 47.98384 | 37973 ft | 414 kts | 220° |
| 2026-04-23 12:57 | 25.85450 | 47.96654 | 37437 ft | 410 kts | 220° |
| 2026-04-23 12:57 | 25.83095 | 47.94959 | 36927 ft | 407 kts | 219° |
| 2026-04-23 12:57 | 25.80728 | 47.93256 | 36436 ft | 404 kts | 219° |
| 2026-04-23 12:57 | 25.78419 | 47.91600 | 35865 ft | 386 kts | 219° |
| 2026-04-23 12:58 | 25.76189 | 47.90002 | 35369 ft | 380 kts | 219° |
| 2026-04-23 12:58 | 25.73959 | 47.88396 | 34916 ft | 385 kts | 219° |
| 2026-04-23 12:58 | 25.71701 | 47.86765 | 34465 ft | 390 kts | 219° |
| 2026-04-23 12:58 | 25.69410 | 47.85113 | 34017 ft | 394 kts | 219° |
| 2026-04-23 12:59 | 25.67146 | 47.83486 | 33505 ft | 392 kts | 219° |
| 2026-04-23 12:59 | 25.64859 | 47.81847 | 32985 ft | 390 kts | 219° |
| 2026-04-23 12:59 | 25.62583 | 47.80231 | 32468 ft | 388 kts | 218° |
| 2026-04-23 12:59 | 25.60315 | 47.78639 | 31963 ft | 385 kts | 218° |
| 2026-04-23 13:00 | 25.58059 | 47.77051 | 31450 ft | 383 kts | 217° |
| 2026-04-23 13:00 | 25.55808 | 47.75477 | 30970 ft | 381 kts | 217° |
| 2026-04-23 13:00 | 25.53571 | 47.73916 | 30484 ft | 380 kts | 216° |
| 2026-04-23 13:00 | 25.51387 | 47.72293 | 29934 ft | 376 kts | 223° |
| 2026-04-23 13:01 | 25.49590 | 47.70250 | 29320 ft | 367 kts | 235° |
| 2026-04-23 13:01 | 25.48167 | 47.67929 | 28802 ft | 362 kts | 240° |
| 2026-04-23 13:01 | 25.46881 | 47.65541 | 28246 ft | 360 kts | 241° |
| 2026-04-23 13:01 | 25.45661 | 47.63174 | 27705 ft | 358 kts | 242° |
| 2026-04-23 13:02 | 25.44445 | 47.60780 | 27158 ft | 356 kts | 242° |
| 2026-04-23 13:02 | 25.43242 | 47.58400 | 26615 ft | 352 kts | 242° |
| 2026-04-23 13:02 | 25.42054 | 47.56043 | 26084 ft | 349 kts | 242° |
| 2026-04-23 13:02 | 25.40881 | 47.53710 | 25552 ft | 345 kts | 243° |
| 2026-04-23 13:03 | 25.39786 | 47.51393 | 24961 ft | 334 kts | 244° |
| 2026-04-23 13:03 | 25.38744 | 47.49143 | 24264 ft | 324 kts | 244° |
| 2026-04-23 13:03 | 25.37740 | 47.46961 | 23585 ft | 313 kts | 244° |
| 2026-04-23 13:03 | 25.36771 | 47.44845 | 22815 ft | 304 kts | 243° |
| 2026-04-23 13:04 | 25.35852 | 47.42811 | 22043 ft | 296 kts | 243° |
| 2026-04-23 13:04 | 25.34906 | 47.40822 | 21313 ft | 290 kts | 237° |
| 2026-04-23 13:04 | 25.33750 | 47.39002 | 20556 ft | 290 kts | 232° |
| 2026-04-23 13:04 | 25.32517 | 47.37228 | 19795 ft | 291 kts | 232° |
| 2026-04-23 13:05 | 25.31278 | 47.35469 | 19067 ft | 288 kts | 231° |
| 2026-04-23 13:05 | 25.30056 | 47.33732 | 18346 ft | 284 kts | 231° |
| 2026-04-23 13:05 | 25.28859 | 47.32011 | 17511 ft | 280 kts | 230° |
| 2026-04-23 13:05 | 25.27693 | 47.30307 | 16714 ft | 276 kts | 231° |
| 2026-04-23 13:06 | 25.25457 | 47.26969 | 15178 ft | 269 kts | 231° |
| 2026-04-23 13:06 | 25.24364 | 47.25308 | 14436 ft | 266 kts | 231° |
| 2026-04-23 13:06 | 25.23288 | 47.23660 | 13707 ft | 263 kts | 231° |
| 2026-04-23 13:07 | 25.22230 | 47.22020 | 12904 ft | 261 kts | 231° |
| 2026-04-23 13:07 | 25.21186 | 47.20388 | 12086 ft | 259 kts | 231° |
| 2026-04-23 13:07 | 25.20150 | 47.18764 | 11322 ft | 258 kts | 231° |
| 2026-04-23 13:07 | 25.19124 | 47.17143 | 10578 ft | 257 kts | 231° |
| 2026-04-23 13:08 | 25.18110 | 47.15518 | 9844 ft | 257 kts | 231° |
| 2026-04-23 13:08 | 25.17041 | 47.13945 | 9092 ft | 255 kts | 220° |
| 2026-04-23 13:08 | 25.15612 | 47.12846 | 8462 ft | 257 kts | 198° |
| 2026-04-23 13:08 | 25.13859 | 47.12417 | 8266 ft | 262 kts | 179° |
| 2026-04-23 13:09 | 25.12028 | 47.12476 | 8020 ft | 262 kts | 173° |
| 2026-04-23 13:09 | 25.10241 | 47.12647 | 7995 ft | 255 kts | 172° |
| 2026-04-23 13:09 | 25.08464 | 47.12836 | 7986 ft | 259 kts | 172° |
| 2026-04-23 13:09 | 25.06663 | 47.13004 | 7980 ft | 261 kts | 176° |
| 2026-04-23 13:10 | 25.04851 | 47.12941 | 8007 ft | 261 kts | 181° |
| 2026-04-23 13:10 | 25.03033 | 47.12779 | 7761 ft | 263 kts | 182° |
| 2026-04-23 13:10 | 25.01215 | 47.12536 | 7219 ft | 263 kts | 188° |
| 2026-04-23 13:10 | 24.99515 | 47.11938 | 6730 ft | 257 kts | 197° |
| 2026-04-23 13:11 | 24.97909 | 47.11133 | 6273 ft | 251 kts | 199° |
| 2026-04-23 13:11 | 24.96380 | 47.10265 | 6070 ft | 247 kts | 200° |
| 2026-04-23 13:11 | 24.94841 | 47.09363 | 5758 ft | 253 kts | 201° |
| 2026-04-23 13:11 | 24.93293 | 47.08431 | 5365 ft | 253 kts | 200° |
| 2026-04-23 13:12 | 24.91767 | 47.07474 | 5016 ft | 252 kts | 203° |
| 2026-04-23 13:12 | 24.90323 | 47.06320 | 5001 ft | 258 kts | 211° |
| 2026-04-23 13:12 | 24.88991 | 47.05038 | 4975 ft | 256 kts | 212° |
| 2026-04-23 13:12 | 24.87687 | 47.03750 | 4960 ft | 245 kts | 212° |
| 2026-04-23 13:13 | 24.86482 | 47.02553 | 4934 ft | 221 kts | 210° |
| 2026-04-23 13:13 | 24.85405 | 47.01408 | 4975 ft | 213 kts | 216° |
| 2026-04-23 13:13 | 24.84499 | 47.00084 | 5031 ft | 220 kts | 232° |
| 2026-04-23 13:13 | 24.83915 | 46.98519 | 4995 ft | 224 kts | 253° |
| 2026-04-23 13:14 | 24.83687 | 46.96832 | 4991 ft | 227 kts | 258° |
| 2026-04-23 13:14 | 24.83359 | 46.95101 | 4960 ft | 224 kts | 252° |
| 2026-04-23 13:14 | 24.82851 | 46.93503 | 4961 ft | 215 kts | 248° |
| 2026-04-23 13:14 | 24.82455 | 46.91947 | 4663 ft | 217 kts | 264° |
| 2026-04-23 13:15 | 24.82518 | 46.90311 | 4236 ft | 212 kts | 275° |
| 2026-04-23 13:15 | 24.82690 | 46.88727 | 3789 ft | 205 kts | 277° |
| 2026-04-23 13:15 | 24.82859 | 46.87223 | 3404 ft | 193 kts | 280° |
| 2026-04-23 13:15 | 24.83026 | 46.85781 | 3087 ft | 190 kts | 281° |
| 2026-04-23 13:16 | 24.83285 | 46.84287 | 3000 ft | 202 kts | 295° |
| 2026-04-23 13:16 | 24.83946 | 46.82988 | 2996 ft | 191 kts | 311° |
| 2026-04-23 13:16 | 24.84692 | 46.81790 | 2988 ft | 185 kts | 309° |
| 2026-04-23 13:16 | 24.85401 | 46.80641 | 2982 ft | 181 kts | 309° |
| 2026-04-23 13:17 | 24.86103 | 46.79511 | 3004 ft | 182 kts | 310° |
| 2026-04-23 13:17 | 24.86785 | 46.78347 | 2991 ft | 185 kts | 302° |
| 2026-04-23 13:17 | 24.87375 | 46.77060 | 3010 ft | 184 kts | 316° |
| 2026-04-23 13:17 | 24.88347 | 46.76244 | 3011 ft | 174 kts | 336° |
| 2026-04-23 13:18 | 24.89364 | 46.75545 | 3061 ft | 170 kts | 335° |
| 2026-04-23 13:18 | 24.90381 | 46.74896 | 2942 ft | 166 kts | 339° |
| 2026-04-23 13:18 | 24.91336 | 46.74329 | 2658 ft | 146 kts | 339° |
| 2026-04-23 13:18 | 24.92145 | 46.73753 | 2503 ft | 133 kts | 339° |
| 2026-04-23 13:19 | 24.92927 | 46.73213 | 2437 ft | 135 kts | 340° |
| 2026-04-23 13:19 | 24.93741 | 46.72688 | 2262 ft | 138 kts | 338° |
| 2026-04-23 13:19 | 24.94581 | 46.72161 | 2084 ft | 138 kts | 337° |
| 2026-04-23 13:19 | 24.95370 | 46.71657 | 2045 ft | 119 kts | 338° |
| 2026-04-23 13:20 | 24.95989 | 46.71266 | 2043 ft | 82 kts | 328° |
| 2026-04-23 13:20 | 24.96264 | 46.71096 | 2041 ft | 29 kts | 331° |
| 2026-04-23 13:20 | 24.96422 | 46.70992 | 2042 ft | 25 kts | 320° |
| 2026-04-23 13:20 | 24.96503 | 46.70870 | 2042 ft | 12 kts | 299° |
| 2026-04-23 13:21 | 24.96529 | 46.70782 | 2041 ft | 5 kts | 275° |
| 2026-04-23 13:21 | 24.96529 | 46.70773 | 2041 ft | 0 kts | 272° |
| 2026-04-23 13:24 | 24.96529 | 46.70760 | 2042 ft | 0 kts | 270° |
| 2026-04-23 13:24 | 24.96529 | 46.70749 | 2037 ft | 4 kts | 267° |
| 2026-04-23 13:25 | 24.96528 | 46.70740 | 2039 ft | 0 kts | 265° |
| 2026-04-23 13:25 | 24.96521 | 46.70707 | 2036 ft | 14 kts | 253° |
| 2026-04-23 13:26 | 24.96478 | 46.70608 | 2043 ft | 14 kts | 238° |
| 2026-04-23 13:26 | 24.96423 | 46.70507 | 2042 ft | 9 kts | 240° |
| 2026-04-23 13:26 | 24.96390 | 46.70444 | 2042 ft | 14 kts | 239° |
| 2026-04-23 13:26 | 24.96361 | 46.70389 | 2043 ft | 5 kts | 240° |
| 2026-04-23 13:27 | 24.96308 | 46.70332 | 2041 ft | 16 kts | 197° |
| 2026-04-23 13:27 | 24.96248 | 46.70309 | 2039 ft | 4 kts | 202° |
| 2026-04-23 13:27 | 24.96236 | 46.70304 | 2039 ft | 3 kts | 203° |
| 2026-04-23 13:27 | 24.96216 | 46.70294 | 2039 ft | 5 kts | 203° |
| 2026-04-23 13:28 | 24.96207 | 46.70290 | 2040 ft | 0 kts | 203° |